Time;durP1;ratioP1;P1;durP2;ratioP2;P2;SDS_P1;SDS_P2;PMS_P1;PMS_P2;Temp;Humidity;BMP_temperature;BMP_pressure;BME280_temperature;BME280_humidity;BME280_pressure;Samples;Min_cycle;Max_cycle;Signal;HPM_P1;HPM_P2
2022/06/29 00:01:15;;;;;;;7.10;5.77;;;18.20;1.00;;;;;;8375385;28;20276;-66
2022/06/29 00:05:18;;;;;;;6.17;5.57;;;18.30;12.20;;;;;;8373825;28;20213;-68
2022/06/29 00:09:19;;;;;;;5.60;5.07;;;18.30;99.90;;;;;;8379212;28;20188;-70
2022/06/29 00:13:20;;;;;;;6.57;5.90;;;18.20;99.90;;;;;;8377926;28;20190;-66
2022/06/29 00:17:22;;;;;;;7.23;5.33;;;18.20;1.00;;;;;;8378821;28;20194;-68
2022/06/29 00:21:23;;;;;;;6.80;5.47;;;18.20;99.90;;;;;;8380539;28;20279;-70
2022/06/29 00:25:24;;;;;;;6.87;6.13;;;18.20;99.90;;;;;;8372230;28;20221;-70
2022/06/29 00:29:25;;;;;;;7.57;5.50;;;18.20;1.00;;;;;;8375500;28;20205;-69
2022/06/29 00:33:25;;;;;;;6.07;5.00;;;18.20;99.90;;;;;;8376354;28;20198;-69
2022/06/29 00:37:27;;;;;;;5.37;4.87;;;18.20;99.90;;;;;;8376937;28;20257;-66
2022/06/29 00:41:28;;;;;;;6.07;4.77;;;18.20;1.00;;;;;;8369360;28;20228;-66
2022/06/29 00:45:29;;;;;;;5.67;5.17;;;18.20;1.00;;;;;;8377513;28;20296;-69
2022/06/29 00:49:31;;;;;;;7.33;5.03;;;18.20;99.90;;;;;;8378856;28;20181;-69
2022/06/29 00:53:37;;;;;;;4.70;4.30;;;18.20;99.90;;;;;;8374481;28;20174;-66
2022/06/29 00:57:42;;;;;;;5.43;4.67;;;18.20;99.90;;;;;;8377262;28;20190;-69
2022/06/29 01:01:43;;;;;;;4.40;4.00;;;18.20;99.90;;;;;;8383154;28;20189;-68
2022/06/29 01:05:44;;;;;;;5.80;3.60;;;18.10;99.90;;;;;;8375786;28;20217;-69
2022/06/29 01:09:45;;;;;;;5.40;4.43;;;18.20;99.90;;;;;;8379925;28;20599;-73
2022/06/29 01:13:48;;;;;;;4.40;4.00;;;18.30;1.00;;;;;;8377545;28;20185;-68
2022/06/29 01:17:49;;;;;;;4.10;3.70;;;18.30;99.90;;;;;;8382325;28;20178;-69
2022/06/29 01:21:51;;;;;;;4.23;3.83;;;18.40;99.90;;;;;;8376988;28;20268;-70
2022/06/29 01:25:52;;;;;;;5.50;3.77;;;18.40;24.30;;;;;;8375932;28;20216;-66
2022/06/29 01:29:53;;;;;;;4.60;3.77;;;18.50;1.00;;;;;;8379690;28;20212;-68
2022/06/29 01:33:54;;;;;;;6.47;4.23;;;18.50;1.00;;;;;;8369939;28;20182;-68
2022/06/29 01:37:55;;;;;;;4.37;3.60;;;18.60;1.00;;;;;;8369811;28;20180;-69
2022/06/29 01:41:56;;;;;;;4.17;3.77;;;18.60;99.90;;;;;;8369419;28;20188;-70
2022/06/29 01:45:57;;;;;;;5.13;4.07;;;18.60;99.90;;;;;;8372001;28;20209;-69
2022/06/29 01:49:58;;;;;;;6.53;4.23;;;18.70;99.90;;;;;;8369177;28;20219;-69
2022/06/29 01:53:59;;;;;;;4.47;3.93;;;18.80;99.90;;;;;;8371225;28;20188;-69
2022/06/29 01:58:00;;;;;;;3.77;3.47;;;18.70;99.90;;;;;;8373423;28;20190;-67
2022/06/29 02:02:01;;;;;;;5.30;3.87;;;18.70;99.90;;;;;;8377355;28;20189;-67
2022/06/29 02:06:02;;;;;;;3.63;3.27;;;18.70;99.90;;;;;;8379484;28;20250;-68
2022/06/29 02:10:03;;;;;;;3.97;3.57;;;18.70;99.90;;;;;;8370752;28;20212;-68
2022/06/29 02:14:04;;;;;;;4.17;3.37;;;18.70;99.90;;;;;;8372979;28;20219;-68
2022/06/29 02:18:05;;;;;;;4.07;3.57;;;18.70;99.90;;;;;;8371041;28;20401;-70
2022/06/29 02:22:06;;;;;;;4.97;3.37;;;18.70;99.90;;;;;;8372853;28;20239;-69
2022/06/29 02:26:06;;;;;;;3.60;3.03;;;18.70;99.90;;;;;;8378044;28;20209;-70
2022/06/29 02:30:11;;;;;;;3.87;3.53;;;18.60;99.90;;;;;;8375117;28;20197;-68
2022/06/29 02:38:32;;;;;;;4.23;3.40;;;18.70;99.90;;;;;;8370206;28;20372;-70
2022/06/29 02:42:32;;;;;;;4.00;3.57;;;18.60;99.90;;;;;;8373839;28;20208;-69
2022/06/29 02:46:33;;;;;;;3.73;3.37;;;18.70;99.90;;;;;;8381273;28;20217;-69
2022/06/29 02:50:34;;;;;;;4.57;3.70;;;18.70;99.90;;;;;;8368035;28;20177;-66
2022/06/29 02:54:36;;;;;;;3.40;2.80;;;18.70;99.90;;;;;;8367766;28;20247;-68
2022/06/29 02:58:36;;;;;;;3.50;3.20;;;18.60;99.90;;;;;;8370409;28;20197;-70
2022/06/29 03:02:37;;;;;;;7.80;4.67;;;18.70;99.90;;;;;;8377773;28;20186;-69
2022/06/29 03:06:38;;;;;;;7.93;5.47;;;18.70;99.90;;;;;;8379944;28;20217;-68
2022/06/29 03:10:39;;;;;;;5.57;4.20;;;18.70;99.90;;;;;;8373417;28;20185;-71
2022/06/29 03:14:40;;;;;;;7.33;4.67;;;18.70;1.00;;;;;;8367093;28;20195;-71
2022/06/29 03:18:41;;;;;;;5.37;3.73;;;18.70;1.00;;;;;;8380002;28;20220;-71
2022/06/29 03:22:44;;;;;;;4.10;3.70;;;18.60;99.90;;;;;;8374833;28;20291;-71
2022/06/29 03:26:44;;;;;;;6.63;3.90;;;18.60;1.00;;;;;;8371607;28;20217;-70
2022/06/29 03:30:45;;;;;;;3.80;3.23;;;18.60;99.90;;;;;;8370273;28;20343;-70
2022/06/29 03:34:46;;;;;;;4.60;4.13;;;18.50;1.00;;;;;;8369707;28;20193;-67
2022/06/29 03:38:47;;;;;;;6.63;4.77;;;18.40;99.90;;;;;;8363766;28;20182;-68
2022/06/29 03:42:47;;;;;;;5.87;4.50;;;18.20;33.40;;;;;;8369269;28;20276;-70
2022/06/29 03:46:48;;;;;;;4.47;4.07;;;18.10;1.00;;;;;;8364462;28;20220;-69
2022/06/29 03:50:49;;;;;;;4.67;4.27;;;17.90;34.60;;;;;;8362605;28;20230;-70
2022/06/29 03:54:50;;;;;;;5.80;5.03;;;17.90;99.90;;;;;;8370492;28;20193;-71
2022/06/29 03:58:51;;;;;;;7.03;5.07;;;18.00;99.90;;;;;;8374531;28;20186;-68
2022/06/29 04:02:52;;;;;;;5.10;4.60;;;18.00;99.90;;;;;;8368188;28;20196;-70
2022/06/29 04:06:53;;;;;;;6.30;4.87;;;18.10;45.20;;;;;;8376373;28;20243;-70
2022/06/29 04:10:55;;;;;;;6.23;4.47;;;18.10;1.00;;;;;;8377784;28;20298;-70
2022/06/29 04:14:56;;;;;;;5.27;4.77;;;18.20;99.90;;;;;;8373430;28;20735;-69
2022/06/29 04:18:57;;;;;;;5.90;5.20;;;18.20;1.00;;;;;;8369136;28;20180;-70
2022/06/29 04:23:02;;;;;;;7.07;5.47;;;18.30;99.90;;;;;;8369026;28;20266;-68
2022/06/29 04:27:03;;;;;;;5.63;5.10;;;18.30;1.00;;;;;;8369547;28;20213;-66
2022/06/29 04:31:04;;;;;;;6.43;4.90;;;18.30;1.00;;;;;;8373300;28;20197;-65
2022/06/29 04:35:05;;;;;;;5.90;4.57;;;18.20;1.00;;;;;;8372920;28;20194;-66
2022/06/29 04:39:06;;;;;;;5.70;5.10;;;18.10;99.90;;;;;;8369995;28;20190;-71
2022/06/29 04:43:07;;;;;;;10.23;8.43;;;18.10;99.90;;;;;;8372434;28;20236;-71
2022/06/29 04:47:09;;;;;;;10.87;8.93;;;18.10;1.00;;;;;;8370957;28;20212;-71
2022/06/29 04:51:10;;;;;;;7.23;6.10;;;18.10;99.90;;;;;;8372646;28;20197;-66
2022/06/29 04:55:11;;;;;;;8.20;5.83;;;18.10;99.90;;;;;;8372577;28;20190;-69
2022/06/29 04:59:12;;;;;;;8.00;7.20;;;18.10;1.00;;;;;;8379647;28;20189;-71
2022/06/29 05:03:13;;;;;;;8.13;7.13;;;17.90;99.90;;;;;;8375797;28;20260;-70
2022/06/29 05:07:13;;;;;;;8.63;7.77;;;17.80;1.00;;;;;;8381263;28;20218;-67
2022/06/29 05:11:15;;;;;;;8.20;6.60;;;17.70;99.90;;;;;;8375318;28;20269;-70
2022/06/29 05:15:15;;;;;;;8.30;7.37;;;17.70;99.90;;;;;;8381818;28;20192;-70
2022/06/29 05:19:16;;;;;;;9.27;8.23;;;17.70;99.90;;;;;;8372234;28;20182;-66
2022/06/29 05:23:18;;;;;;;9.10;7.63;;;17.60;99.90;;;;;;8379266;28;20193;-72
2022/06/29 05:27:19;;;;;;;9.40;8.47;;;17.60;99.90;;;;;;8371526;28;20224;-69
2022/06/29 05:31:20;;;;;;;9.10;7.53;;;17.60;99.90;;;;;;8371282;28;20209;-71
2022/06/29 05:35:21;;;;;;;9.57;8.57;;;17.60;99.90;;;;;;8370152;28;20197;-68
2022/06/29 05:39:21;;;;;;;10.97;9.30;;;17.60;99.90;;;;;;8374573;28;20246;-71
2022/06/29 05:43:22;;;;;;;9.13;8.23;;;17.60;99.90;;;;;;8379563;28;20273;-70
2022/06/29 05:47:23;;;;;;;10.23;8.93;;;17.70;99.90;;;;;;8372031;28;20264;-72
2022/06/29 05:51:24;;;;;;;13.97;12.57;;;17.70;99.90;;;;;;8371991;28;20280;-71
2022/06/29 05:55:25;;;;;;;10.87;9.13;;;17.80;99.90;;;;;;8370559;28;20235;-73
2022/06/29 05:59:26;;;;;;;9.30;8.37;;;17.80;99.90;;;;;;8378844;28;20193;-72
2022/06/29 06:03:26;;;;;;;10.20;9.17;;;18.00;99.90;;;;;;8376770;28;20460;-71
2022/06/29 06:07:27;;;;;;;10.37;8.97;;;18.00;99.90;;;;;;8369682;28;20220;-64
2022/06/29 06:11:28;;;;;;;11.20;10.17;;;18.10;99.90;;;;;;8367839;28;20181;-65
2022/06/29 06:15:29;;;;;;;10.50;9.50;;;18.10;99.90;;;;;;8379341;28;20189;-70
2022/06/29 06:19:30;;;;;;;11.07;10.07;;;18.10;99.90;;;;;;8370646;28;20190;-65
2022/06/29 06:23:30;;;;;;;11.30;10.20;;;18.10;99.90;;;;;;8364674;28;20184;-63
2022/06/29 06:27:31;;;;;;;12.27;10.67;;;18.10;99.90;;;;;;8373963;28;20228;-66
2022/06/29 06:31:32;;;;;;;11.30;10.30;;;18.20;99.90;;;;;;8374900;28;20182;-68
2022/06/29 06:35:33;;;;;;;11.20;10.10;;;18.10;1.00;;;;;;8374212;28;20200;-67
2022/06/29 06:39:34;;;;;;;20.70;18.63;;;18.10;99.90;;;;;;8366962;28;20401;-67
2022/06/29 06:43:34;;;;;;;10.47;9.47;;;18.10;99.90;;;;;;8378105;28;20192;-65
2022/06/29 06:47:35;;;;;;;11.13;10.00;;;18.10;1.00;;;;;;8368586;28;20252;-66
2022/06/29 06:51:36;;;;;;;14.27;11.03;;;18.20;99.90;;;;;;8372716;28;20185;-68
2022/06/29 06:55:37;;;;;;;10.43;9.43;;;18.20;1.00;;;;;;8372182;28;20189;-67
2022/06/29 06:59:38;;;;;;;11.30;10.30;;;18.20;99.90;;;;;;8364940;28;20217;-65
2022/06/29 07:03:39;;;;;;;11.03;9.97;;;18.20;1.00;;;;;;8369748;28;20201;-67
2022/06/29 07:07:40;;;;;;;10.57;9.63;;;18.30;1.00;;;;;;8373373;28;20205;-66
2022/06/29 07:11:40;;;;;;;12.93;10.70;;;18.30;1.00;;;;;;8369594;28;20228;-70
2022/06/29 07:15:41;;;;;;;12.87;11.67;;;18.20;1.00;;;;;;8368508;28;20318;-68
2022/06/29 07:19:42;;;;;;;11.67;9.90;;;18.20;1.00;;;;;;8367330;28;20273;-68
2022/06/29 07:23:43;;;;;;;9.57;8.63;;;18.10;99.90;;;;;;8364308;28;20177;-66
2022/06/29 07:27:44;;;;;;;11.03;9.93;;;18.00;99.90;;;;;;8368101;28;20213;-71
2022/06/29 07:31:44;;;;;;;10.03;9.03;;;17.90;99.90;;;;;;8370426;28;20592;-70
2022/06/29 07:35:45;;;;;;;10.33;9.33;;;17.90;1.00;;;;;;8372828;28;20316;-66
2022/06/29 07:39:46;;;;;;;10.80;9.70;;;17.90;99.90;;;;;;8376417;28;20209;-65
2022/06/29 07:43:46;;;;;;;12.03;9.23;;;17.80;1.00;;;;;;8369008;28;20181;-71
2022/06/29 07:47:48;;;;;;;10.00;8.87;;;17.90;99.90;;;;;;8372499;28;20672;-70
2022/06/29 07:51:52;;;;;;;8.77;7.93;;;18.00;99.90;;;;;;8366847;28;20212;-72
2022/06/29 07:55:53;;;;;;;8.33;7.50;;;18.20;99.90;;;;;;8361230;28;20306;-67
2022/06/29 07:59:53;;;;;;;8.50;7.20;;;18.50;99.90;;;;;;8367872;28;20185;-73
2022/06/29 08:03:55;;;;;;;7.33;6.60;;;18.80;12.00;;;;;;8368159;28;20223;-65
2022/06/29 08:07:56;;;;;;;9.03;7.00;;;18.90;1.00;;;;;;8371158;28;20389;-66
2022/06/29 08:11:57;;;;;;;8.43;7.10;;;19.00;99.90;;;;;;8367029;28;20256;-70
2022/06/29 08:15:58;;;;;;;8.57;7.37;;;19.00;99.90;;;;;;8365652;28;20182;-69
2022/06/29 08:19:59;;;;;;;9.67;6.57;;;18.90;1.00;;;;;;8361088;28;20197;-67
2022/06/29 08:24:00;;;;;;;7.53;6.27;;;18.90;99.90;;;;;;8371948;28;20178;-67
2022/06/29 08:28:02;;;;;;;8.07;6.17;;;18.90;18.60;;;;;;8368226;28;20216;-73
2022/06/29 08:32:04;;;;;;;6.10;5.50;;;19.10;99.90;;;;;;8372587;28;20178;-67
2022/06/29 08:36:05;;;;;;;6.37;5.77;;;19.40;1.00;;;;;;8375121;28;20189;-71
2022/06/29 08:40:08;;;;;;;7.80;5.80;;;19.60;99.90;;;;;;8373092;28;20182;-69
2022/06/29 08:44:09;;;;;;;5.87;5.10;;;19.60;99.90;;;;;;8378372;28;20249;-69
2022/06/29 08:48:11;;;;;;;6.47;5.87;;;19.60;99.90;;;;;;8374461;28;20186;-66
2022/06/29 08:52:12;;;;;;;6.43;5.80;;;19.90;71.60;;;;;;8377178;28;20209;-72
2022/06/29 08:56:14;;;;;;;5.30;4.87;;;20.60;99.90;;;;;;8378847;28;20186;-66
2022/06/29 09:00:15;;;;;;;6.23;5.37;;;21.50;99.90;;;;;;8377330;28;20216;-65
2022/06/29 09:04:16;;;;;;;5.10;4.60;;;22.10;1.00;;;;;;8377577;28;20275;-68
2022/06/29 09:08:18;;;;;;;5.00;4.20;;;22.50;1.00;;;;;;8376115;28;20186;-67
2022/06/29 09:12:19;;;;;;;6.60;5.20;;;22.90;99.90;;;;;;8373457;28;20253;-66
2022/06/29 09:16:20;;;;;;;5.50;4.80;;;22.90;99.90;;;;;;8377037;28;20180;-71
2022/06/29 09:20:20;;;;;;;6.30;4.50;;;22.70;99.90;;;;;;8377776;28;20320;-67
2022/06/29 09:24:26;;;;;;;6.67;6.03;;;22.30;1.00;;;;;;8371255;28;20193;-71
2022/06/29 09:28:30;;;;;;;6.70;6.03;;;21.80;1.00;;;;;;8374679;28;20209;-70
2022/06/29 09:32:31;;;;;;;8.80;7.17;;;21.30;99.90;;;;;;8371482;28;20273;-63
2022/06/29 09:36:32;;;;;;;7.67;6.67;;;21.20;99.90;;;;;;8380235;28;20247;-70
2022/06/29 09:40:33;;;;;;;8.07;6.83;;;21.30;99.90;;;;;;8366319;28;20208;-63
2022/06/29 09:44:34;;;;;;;7.03;6.43;;;21.50;99.90;;;;;;8375638;28;20217;-63
2022/06/29 09:48:36;;;;;;;10.00;6.50;;;21.70;99.90;;;;;;8371964;28;20185;-68
2022/06/29 09:52:39;;;;;;;6.80;5.83;;;22.10;56.10;;;;;;8372215;28;20174;-63
2022/06/29 09:56:47;;;;;;;7.27;6.60;;;22.70;1.00;;;;;;8374834;28;20189;-71
2022/06/29 10:05:12;;;;;;;6.53;5.93;;;23.80;99.90;;;;;;8381383;28;20227;-68
2022/06/29 10:09:14;;;;;;;8.47;7.53;;;24.20;99.90;;;;;;8373858;28;20197;-68
2022/06/29 10:13:41;;;;;;;8.77;7.53;;;24.60;99.90;;;;;;8368981;28;20178;-65
2022/06/29 10:17:55;;;;;;;9.73;7.40;;;24.40;99.90;;;;;;8373390;28;20182;-70
2022/06/29 10:21:56;;;;;;;8.60;7.70;;;23.70;99.90;;;;;;8371836;28;20189;-66
2022/06/29 10:25:57;;;;;;;9.17;8.27;;;23.40;99.90;;;;;;8378859;28;20236;-66
2022/06/29 10:30:19;;;;;;;11.20;9.47;;;23.40;1.00;;;;;;8369497;28;20226;-65
2022/06/29 10:34:32;;;;;;;8.80;8.00;;;23.30;1.00;;;;;;8371303;28;20225;-65
2022/06/29 10:38:54;;;;;;;9.93;8.93;;;23.20;1.00;;;;;;8375835;28;20177;-66
2022/06/29 10:43:10;;;;;;;10.00;9.00;;;23.10;1.00;;;;;;8377189;28;20189;-66
2022/06/29 10:47:37;;;;;;;10.03;9.03;;;23.20;1.00;;;;;;8374568;28;20233;-71
2022/06/29 10:51:38;;;;;;;9.93;9.03;;;23.40;1.00;;;;;;8363045;28;20607;-71
2022/06/29 10:55:50;;;;;;;10.83;9.83;;;23.50;99.90;;;;;;8372675;28;21423;-74
2022/06/29 10:59:51;;;;;;;14.30;10.47;;;23.50;99.90;;;;;;8369334;28;20190;-70
2022/06/29 11:03:54;;;;;;;9.20;7.63;;;23.50;99.90;;;;;;8372804;28;20203;-70
2022/06/29 11:12:14;;;;;;;9.13;8.13;;;23.90;99.90;;;;;;8374281;28;20268;-66
2022/06/29 11:16:15;;;;;;;8.93;8.03;;;24.10;99.90;;;;;;8373750;28;20185;-63
2022/06/29 11:20:20;;;;;;;11.10;10.00;;;24.20;99.90;;;;;;8369407;28;20209;-65
2022/06/29 11:24:22;;;;;;;7.73;6.93;;;24.40;99.90;;;;;;8366847;28;20182;-68
2022/06/29 11:28:28;;;;;;;10.73;9.73;;;24.70;99.90;;;;;;8369911;28;20284;-66
2022/06/29 11:33:11;;;;;;;9.90;8.90;;;25.10;99.90;;;;;;8376140;28;20189;-70
2022/06/29 11:37:11;;;;;;;9.47;8.13;;;25.10;99.90;;;;;;8349806;28;20277;-69
2022/06/29 11:41:14;;;;;;;11.07;9.97;;;25.20;99.90;;;;;;8369082;28;20203;-68
2022/06/29 11:45:15;;;;;;;10.95;9.90;;;25.30;99.90;;;;;;8370660;28;20222;-69
2022/06/29 11:49:36;;;;;;;10.85;9.88;;;25.40;99.90;;;;;;8374709;28;20188;-65
2022/06/29 11:53:53;;;;;;;10.93;9.80;;;25.70;99.90;;;;;;8366202;28;20178;-69
2022/06/29 11:58:00;;;;;;;10.48;9.50;;;25.70;99.90;;;;;;8377376;28;20336;-71
2022/06/29 12:02:01;;;;;;;11.95;10.75;;;25.80;99.90;;;;;;8375217;28;20196;-69
2022/06/29 12:06:02;;;;;;;11.30;10.30;;;25.90;99.90;;;;;;8374951;28;20205;-70
2022/06/29 12:10:03;;;;;;;13.27;11.98;;;25.80;99.90;;;;;;8374645;28;20659;-70
2022/06/29 12:14:04;;;;;;;12.18;10.18;;;25.00;99.90;;;;;;8370428;28;20187;-71
2022/06/29 12:18:05;;;;;;;12.70;11.50;;;24.20;99.90;;;;;;8366057;28;20185;-70
2022/06/29 12:22:07;;;;;;;13.37;12.13;;;23.60;1.00;;;;;;8367743;28;20232;-70
2022/06/29 12:26:08;;;;;;;15.00;12.50;;;23.30;1.00;;;;;;8369417;28;20209;-71
2022/06/29 12:30:10;;;;;;;11.03;9.97;;;23.00;99.90;;;;;;8374456;28;20215;-70
2022/06/29 12:34:12;;;;;;;13.37;11.90;;;23.00;99.90;;;;;;8374395;28;20185;-67
2022/06/29 12:38:12;;;;;;;12.63;10.83;;;23.70;1.00;;;;;;8374691;28;20196;-68
2022/06/29 12:42:13;;;;;;;11.43;10.30;;;24.40;1.00;;;;;;8369025;28;20178;-68
2022/06/29 12:46:14;;;;;;;11.23;10.13;;;24.80;99.90;;;;;;8369472;28;20283;-66
2022/06/29 12:50:15;;;;;;;12.82;11.63;;;25.30;99.90;;;;;;8365955;28;20230;-68
2022/06/29 12:54:17;;;;;;;12.55;11.35;;;25.80;99.90;;;;;;8365984;28;20178;-70
2022/06/29 12:58:18;;;;;;;15.00;13.60;;;26.00;99.90;;;;;;8371971;28;20185;-65
2022/06/29 13:02:21;;;;;;;13.70;12.48;;;25.80;99.90;;;;;;8370201;28;20189;-65
2022/06/29 13:06:22;;;;;;;13.67;12.33;;;25.40;99.90;;;;;;8371401;28;20307;-67
2022/06/29 13:10:23;;;;;;;15.03;13.63;;;25.10;99.90;;;;;;8369546;28;20178;-67
2022/06/29 13:14:25;;;;;;;16.27;13.47;;;24.80;99.90;;;;;;8369492;28;20178;-69
2022/06/29 13:18:26;;;;;;;12.77;11.50;;;24.50;99.90;;;;;;8373709;28;20672;-68
2022/06/29 13:22:27;;;;;;;14.40;13.00;;;24.30;1.00;;;;;;8374986;28;20273;-66
2022/06/29 13:26:28;;;;;;;13.77;12.40;;;24.20;1.00;;;;;;8378686;28;20300;-69
2022/06/29 13:30:29;;;;;;;16.10;13.63;;;24.10;1.00;;;;;;8375655;28;20204;-71
2022/06/29 13:34:30;;;;;;;13.50;12.07;;;24.20;1.00;;;;;;8377681;28;20270;-65
2022/06/29 13:38:31;;;;;;;13.47;12.17;;;24.40;1.00;;;;;;8375871;28;20177;-66
2022/06/29 13:42:31;;;;;;;12.77;11.67;;;24.30;1.00;;;;;;8386346;28;20244;-66
2022/06/29 13:46:32;;;;;;;13.93;12.63;;;24.30;1.00;;;;;;8385426;28;20232;-65
2022/06/29 13:50:33;;;;;;;12.30;11.00;;;24.30;1.00;;;;;;8381318;28;20231;-65
2022/06/29 13:54:40;;;;;;;12.23;11.03;;;24.50;99.90;;;;;;8372772;28;20174;-70
2022/06/29 13:58:41;;;;;;;12.40;11.10;;;24.90;99.90;;;;;;8379776;28;20292;-73
2022/06/29 14:02:42;;;;;;;11.40;10.17;;;25.60;99.90;;;;;;8383734;28;20212;-67
2022/06/29 14:06:42;;;;;;;11.10;10.02;;;26.00;99.90;;;;;;8373708;28;20209;-65
2022/06/29 14:10:44;;;;;;;11.95;10.85;;;26.10;99.90;;;;;;8373742;28;20217;-67
2022/06/29 14:14:44;;;;;;;10.82;9.82;;;25.90;99.90;;;;;;8370432;28;20182;-68
2022/06/29 14:18:45;;;;;;;10.13;9.13;;;25.70;99.90;;;;;;8370748;28;20182;-66
2022/06/29 14:22:46;;;;;;;9.63;8.68;;;25.60;99.90;;;;;;8369199;28;20239;-69
2022/06/29 14:26:47;;;;;;;10.25;9.25;;;25.50;99.90;;;;;;8373226;28;20217;-70
2022/06/29 14:30:48;;;;;;;9.85;8.95;;;25.50;99.90;;;;;;8375660;28;20197;-66
2022/06/29 14:34:49;;;;;;;10.70;9.70;;;25.40;99.90;;;;;;8386195;28;20183;-70
2022/06/29 14:38:50;;;;;;;9.77;8.87;;;25.10;99.90;;;;;;8373627;28;20181;-69
2022/06/29 14:42:51;;;;;;;8.77;8.03;;;24.80;99.90;;;;;;8372799;28;20192;-69
2022/06/29 14:46:51;;;;;;;9.33;8.43;;;24.60;99.90;;;;;;8371792;28;20233;-70
2022/06/29 14:50:53;;;;;;;9.27;8.37;;;24.90;99.90;;;;;;8365251;28;20197;-66
2022/06/29 14:54:54;;;;;;;7.25;6.65;;;25.30;99.90;;;;;;8368133;28;20194;-69
2022/06/29 14:58:55;;;;;;;8.20;7.50;;;25.60;99.90;;;;;;8372239;28;20225;-66
2022/06/29 15:02:56;;;;;;;8.65;7.63;;;25.90;99.90;;;;;;8383664;28;20192;-69
2022/06/29 15:06:57;;;;;;;7.72;6.95;;;26.20;99.90;;;;;;8376278;28;20209;-69
2022/06/29 15:10:58;;;;;;;8.02;7.25;;;26.40;99.90;;;;;;8367935;28;20181;-66
2022/06/29 15:14:58;;;;;;;6.60;5.93;;;26.40;99.90;;;;;;8373594;28;20331;-64
2022/06/29 15:19:00;;;;;;;7.22;6.03;;;26.40;99.90;;;;;;8368842;28;20177;-65
2022/06/29 15:23:00;;;;;;;9.40;6.63;;;26.20;99.90;;;;;;8367297;28;20238;-66
2022/06/29 15:27:01;;;;;;;6.72;6.03;;;26.20;99.90;;;;;;8365551;28;20213;-69
2022/06/29 15:31:03;;;;;;;9.18;5.60;;;26.30;99.90;;;;;;8367547;28;20180;-70
2022/06/29 15:39:24;;;;;;;7.82;7.10;;;26.70;99.90;;;;;;8376128;28;20185;-65
2022/06/29 15:43:25;;;;;;;9.02;7.43;;;26.80;99.90;;;;;;8365803;28;20434;-70
2022/06/29 15:47:26;;;;;;;8.00;6.70;;;26.80;99.90;;;;;;8372229;28;20214;-65
2022/06/29 15:51:27;;;;;;;6.85;6.18;;;27.00;99.90;;;;;;8371655;28;20239;-68
2022/06/29 15:55:34;;;;;;;6.63;6.03;;;27.30;99.90;;;;;;8368775;28;20219;-70
2022/06/29 15:59:35;;;;;;;6.93;6.32;;;27.40;91.60;;;;;;8366610;28;20174;-64
2022/06/29 16:03:36;;;;;;;8.10;7.30;;;27.50;90.50;;;;;;8379662;28;20205;-67
2022/06/29 16:07:37;;;;;;;9.07;7.35;;;27.60;59.00;;;;;;8370964;28;20295;-65
2022/06/29 16:15:57;;;;;;;7.25;6.57;;;27.60;63.90;;;;;;8370804;28;20207;-65
2022/06/29 16:19:58;;;;;;;6.90;6.20;;;27.60;44.10;;;;;;8370058;28;20177;-67
2022/06/29 16:23:59;;;;;;;8.60;6.47;;;27.60;52.60;;;;;;8378870;28;20200;-67
2022/06/29 16:28:00;;;;;;;7.30;6.40;;;27.60;28.90;;;;;;8372562;28;20296;-67
2022/06/29 16:32:01;;;;;;;7.57;6.97;;;27.50;28.50;;;;;;8376920;28;20181;-66
2022/06/29 16:36:01;;;;;;;8.35;7.40;;;27.40;23.40;;;;;;8373818;28;20525;-70
2022/06/29 16:40:02;;;;;;;8.98;8.18;;;27.30;24.00;;;;;;8371093;28;20192;-66
2022/06/29 16:44:05;;;;;;;7.85;7.00;;;27.30;26.60;;;;;;8369710;28;20185;-65
2022/06/29 16:48:06;;;;;;;7.90;7.20;;;27.50;19.80;;;;;;8366314;28;20242;-67
2022/06/29 16:52:07;;;;;;;7.93;7.22;;;27.40;11.20;;;;;;8373354;28;20181;-64
2022/06/29 16:56:08;;;;;;;8.07;7.28;;;27.30;13.60;;;;;;8377554;28;20220;-68
2022/06/29 17:00:10;;;;;;;7.25;6.65;;;27.20;9.60;;;;;;8375541;28;20185;-70
2022/06/29 17:04:11;;;;;;;7.43;6.72;;;27.00;23.20;;;;;;8372038;28;20193;-66
2022/06/29 17:08:12;;;;;;;8.32;7.63;;;27.00;35.00;;;;;;8378532;28;20224;-68
2022/06/29 17:12:13;;;;;;;9.07;7.75;;;27.00;40.00;;;;;;8373829;28;20185;-71
2022/06/29 17:16:14;;;;;;;10.63;8.88;;;26.70;52.30;;;;;;8374309;28;20185;-67
2022/06/29 17:20:15;;;;;;;9.10;7.70;;;26.50;65.00;;;;;;8375442;28;20182;-68
2022/06/29 17:24:16;;;;;;;8.52;7.50;;;26.50;86.10;;;;;;8372310;28;20186;-68
2022/06/29 17:28:16;;;;;;;9.75;8.65;;;26.40;87.70;;;;;;8375226;28;20214;-67
2022/06/29 17:32:17;;;;;;;9.10;8.32;;;26.40;97.50;;;;;;8374384;28;20216;-69
2022/06/29 17:36:19;;;;;;;48.92;44.33;;;26.40;99.90;;;;;;8370853;28;20248;-71
2022/06/29 17:40:20;;;;;;;22.77;20.73;;;26.60;98.40;;;;;;8370023;28;20192;-66
2022/06/29 17:44:21;;;;;;;11.05;10.05;;;26.70;94.70;;;;;;8377851;28;20181;-71
2022/06/29 17:48:25;;;;;;;8.50;7.80;;;26.80;92.80;;;;;;8376823;28;20326;-70
2022/06/29 17:52:26;;;;;;;7.85;7.10;;;26.70;96.20;;;;;;8376692;28;20171;-66
2022/06/29 17:56:27;;;;;;;7.57;6.90;;;26.60;99.90;;;;;;8375113;28;20194;-68
2022/06/29 18:00:29;;;;;;;8.82;8.00;;;26.40;99.90;;;;;;8372021;28;20185;-67
2022/06/29 18:04:29;;;;;;;8.73;8.02;;;26.20;99.90;;;;;;8374468;28;20201;-65
2022/06/29 18:08:30;;;;;;;8.73;7.93;;;25.90;99.90;;;;;;8378309;28;20220;-69
2022/06/29 18:12:31;;;;;;;8.48;7.78;;;25.60;99.90;;;;;;8373849;28;20180;-66
2022/06/29 18:16:35;;;;;;;9.32;8.43;;;25.40;99.90;;;;;;8372395;28;21403;-65
2022/06/29 18:20:36;;;;;;;10.98;9.90;;;25.30;99.90;;;;;;8373340;28;20182;-67
2022/06/29 18:24:37;;;;;;;10.40;9.50;;;25.20;99.90;;;;;;8377862;28;20182;-67
2022/06/29 18:28:38;;;;;;;12.87;11.67;;;25.00;99.90;;;;;;8372254;28;20213;-65
2022/06/29 18:32:39;;;;;;;10.80;9.73;;;24.80;99.90;;;;;;8381271;28;20183;-70
2022/06/29 18:36:41;;;;;;;10.87;9.87;;;24.30;1.00;;;;;;8370289;28;20197;-70
2022/06/29 18:40:43;;;;;;;11.37;10.47;;;24.10;1.00;;;;;;8374409;28;20186;-68
2022/06/29 18:44:44;;;;;;;11.07;10.10;;;24.00;89.90;;;;;;8376363;28;20193;-71
2022/06/29 18:48:45;;;;;;;12.20;11.07;;;23.90;99.90;;;;;;8372927;28;20188;-69
2022/06/29 18:52:47;;;;;;;10.57;9.57;;;23.80;99.90;;;;;;8370570;28;20263;-69
2022/06/29 18:56:48;;;;;;;11.27;10.30;;;23.60;99.90;;;;;;8373966;28;20192;-69
2022/06/29 19:00:49;;;;;;;11.17;10.10;;;23.40;1.00;;;;;;8371539;28;20185;-68
2022/06/29 19:04:50;;;;;;;10.67;9.73;;;23.10;1.00;;;;;;8371801;28;20229;-65
2022/06/29 19:08:52;;;;;;;10.63;9.73;;;22.90;99.90;;;;;;8371572;28;20204;-67
2022/06/29 19:12:53;;;;;;;12.03;10.93;;;22.60;1.00;;;;;;8372152;28;20182;-65
2022/06/29 19:16:54;;;;;;;11.70;10.70;;;22.40;99.90;;;;;;8365850;28;20195;-68
2022/06/29 19:20:55;;;;;;;14.53;13.20;;;22.20;40.50;;;;;;8374878;28;20196;-68
2022/06/29 19:24:56;;;;;;;14.60;13.30;;;22.10;99.90;;;;;;8367647;28;20190;-67
2022/06/29 19:28:58;;;;;;;15.87;14.37;;;21.90;99.90;;;;;;8363726;28;20280;-68
2022/06/29 19:32:59;;;;;;;14.17;12.97;;;21.60;1.00;;;;;;8375696;28;20225;-67
2022/06/29 19:37:00;;;;;;;13.40;12.20;;;21.50;99.90;;;;;;8371211;28;20190;-68
2022/06/29 19:41:01;;;;;;;16.60;15.00;;;21.50;99.90;;;;;;8364254;28;20181;-69
2022/06/29 19:45:02;;;;;;;15.00;13.73;;;21.50;1.00;;;;;;8369362;28;20297;-69
2022/06/29 19:49:06;;;;;;;14.70;13.40;;;21.30;99.90;;;;;;8369753;28;20204;-69
2022/06/29 19:53:07;;;;;;;14.93;13.43;;;21.20;37.20;;;;;;8368125;28;20292;-68
2022/06/29 19:57:08;;;;;;;14.57;13.27;;;21.10;99.90;;;;;;8376701;28;20192;-69
2022/06/29 20:01:10;;;;;;;14.33;13.13;;;21.00;99.90;;;;;;8370531;28;20213;-69
2022/06/29 20:05:11;;;;;;;14.07;12.70;;;21.00;99.90;;;;;;8376685;28;20216;-71
2022/06/29 20:09:12;;;;;;;17.53;15.37;;;21.00;99.90;;;;;;8375171;28;20195;-69
2022/06/29 20:13:13;;;;;;;14.83;13.57;;;20.90;99.90;;;;;;8377606;28;20185;-69
2022/06/29 20:17:14;;;;;;;16.23;14.80;;;20.80;99.90;;;;;;8373731;28;20243;-71
2022/06/29 20:21:16;;;;;;;27.90;18.60;;;20.70;99.90;;;;;;8366056;28;20185;-69
2022/06/29 20:25:17;;;;;;;16.57;14.97;;;20.70;99.90;;;;;;8364066;28;20208;-70
2022/06/29 20:29:18;;;;;;;14.30;13.00;;;20.60;99.90;;;;;;8380102;28;20204;-70
2022/06/29 20:33:19;;;;;;;12.30;11.30;;;20.50;99.90;;;;;;8379706;28;20224;-70
2022/06/29 20:37:20;;;;;;;15.33;13.93;;;20.40;99.90;;;;;;8379125;28;20572;-70
2022/06/29 20:41:21;;;;;;;15.23;13.93;;;20.20;99.90;;;;;;8373901;28;20189;-71
2022/06/29 20:45:22;;;;;;;25.50;18.77;;;20.20;99.90;;;;;;8379047;28;20328;-71
2022/06/29 20:49:23;;;;;;;23.07;17.07;;;20.20;99.90;;;;;;8381967;28;20288;-71
2022/06/29 20:53:24;;;;;;;19.43;16.50;;;20.10;99.90;;;;;;8369817;28;20208;-70
2022/06/29 20:57:25;;;;;;;16.57;14.67;;;20.00;99.90;;;;;;8370836;28;20189;-67
2022/06/29 21:01:26;;;;;;;14.23;12.90;;;19.90;99.90;;;;;;8374600;28;20189;-69
2022/06/29 21:05:27;;;;;;;14.50;13.20;;;19.80;99.90;;;;;;8376963;28;20216;-71
2022/06/29 21:09:28;;;;;;;16.07;14.57;;;19.80;99.90;;;;;;8373985;28;20224;-70
2022/06/29 21:13:29;;;;;;;14.97;13.57;;;19.70;99.90;;;;;;8376195;28;20177;-70